createdAt,value
2022-08-26T00:01:31.441Z,1.38
2022-08-26T00:04:10.276Z,1.40
2022-08-26T00:06:46.127Z,1.10
2022-08-26T00:09:20.194Z,1.63
2022-08-26T00:11:49.681Z,1.52
2022-08-26T00:14:20.418Z,1.27
2022-08-26T00:16:53.209Z,1.40
2022-08-26T00:19:24.697Z,1.48
2022-08-26T00:21:55.347Z,1.67
2022-08-26T00:24:27.988Z,1.10
2022-08-26T00:26:57.356Z,1.10
2022-08-26T00:29:27.997Z,1.73
2022-08-26T00:32:01.339Z,1.20
2022-08-26T00:34:31.041Z,0.90
2022-08-26T00:37:03.468Z,1.25
2022-08-26T00:39:33.209Z,1.40
2022-08-26T00:42:02.618Z,1.17
2022-08-26T00:44:35.255Z,1.35
2022-08-26T00:47:10.928Z,1.48
2022-08-26T00:49:45.411Z,0.82
2022-08-26T00:52:23.907Z,1.00
2022-08-26T00:55:27.511Z,2.08
2022-08-26T00:58:10.115Z,3.20
2022-08-26T01:00:39.573Z,1.10
2022-08-26T01:03:12.699Z,1.00
2022-08-26T01:05:43.832Z,0.73
2022-08-26T01:08:13.919Z,1.45
2022-08-26T01:10:44.324Z,1.08
2022-08-26T01:13:15.528Z,1.50
2022-08-26T01:15:53.350Z,0.90
2022-08-26T01:18:23.913Z,1.77
2022-08-26T01:21:40.762Z,1.83
2022-08-26T01:24:13.980Z,1.20
2022-08-26T01:26:45.810Z,0.75
2022-08-26T01:29:21.207Z,0.82
2022-08-26T01:31:57.726Z,0.98
2022-08-26T01:34:36.140Z,1.13
2022-08-26T01:39:50.242Z,1.10
2022-08-26T01:42:26.011Z,2.25
2022-08-26T01:45:06.298Z,1.52
2022-08-26T01:47:38.318Z,1.08
2022-08-26T01:50:28.111Z,1.10
2022-08-26T01:53:07.705Z,0.93
2022-08-26T01:55:42.846Z,1.05
2022-08-26T01:58:24.087Z,0.90
2022-08-26T02:00:54.108Z,1.20
2022-08-26T02:03:25.003Z,1.15
2022-08-26T02:06:00.329Z,0.77
2022-08-26T02:08:41.504Z,0.93
2022-08-26T02:11:10.931Z,1.05
2022-08-26T02:13:47.256Z,1.40
2022-08-26T02:16:27.466Z,0.80
2022-08-26T02:18:59.969Z,1.20
2022-08-26T02:21:30.691Z,0.50
2022-08-26T02:24:18.680Z,1.25
2022-08-26T02:26:49.830Z,0.70
2022-08-26T02:29:43.173Z,0.65
2022-08-26T02:32:18.507Z,0.98
2022-08-26T02:34:48.885Z,0.75
2022-08-26T02:37:18.257Z,1.13
2022-08-26T02:39:49.591Z,0.85
2022-08-26T02:42:19.024Z,0.50
2022-08-26T02:44:48.548Z,0.82
2022-08-26T02:47:18.385Z,1.00
2022-08-26T02:49:48.754Z,1.00
2022-08-26T02:52:20.435Z,0.88
2022-08-26T02:54:50.446Z,0.85
2022-08-26T02:57:22.122Z,1.17
2022-08-26T02:59:51.621Z,1.25
2022-08-26T03:02:22.464Z,0.73
2022-08-26T03:04:57.429Z,1.98
2022-08-26T03:07:31.318Z,1.23
2022-08-26T03:10:01.682Z,1.15
2022-08-26T03:12:38.406Z,1.13
2022-08-26T03:15:16.634Z,1.20
2022-08-26T03:17:50.341Z,1.00
2022-08-26T03:20:22.909Z,1.67
2022-08-26T03:23:00.851Z,0.85
2022-08-26T03:25:30.218Z,0.88
2022-08-26T03:27:59.692Z,1.40
2022-08-26T03:30:45.382Z,2.00
2022-08-26T03:33:16.637Z,0.98
2022-08-26T03:35:50.503Z,1.50
2022-08-26T03:38:23.269Z,1.35
2022-08-26T03:40:53.162Z,0.80
2022-08-26T03:43:23.917Z,1.25
2022-08-26T03:45:53.218Z,1.65
2022-08-26T03:48:24.119Z,1.30
2022-08-26T03:50:57.003Z,1.02
2022-08-26T03:53:26.958Z,1.40
2022-08-26T03:55:56.872Z,1.55
2022-08-26T03:58:26.767Z,1.00
2022-08-26T04:00:56.030Z,1.45
2022-08-26T04:03:39.549Z,1.25
2022-08-26T04:06:09.418Z,1.98
2022-08-26T04:08:39.556Z,1.08
2022-08-26T04:11:09.526Z,1.92
2022-08-26T04:13:39.597Z,1.58
2022-08-26T04:16:09.418Z,1.02
2022-08-26T04:18:40.560Z,1.30
2022-08-26T04:21:16.612Z,1.05
2022-08-26T04:23:47.519Z,2.13
2022-08-26T04:26:20.758Z,1.23
2022-08-26T04:28:53.300Z,1.58
2022-08-26T04:31:24.108Z,1.60
2022-08-26T04:33:53.359Z,1.63
2022-08-26T04:36:22.562Z,2.17
2022-08-26T04:38:52.804Z,1.60
2022-08-26T04:41:23.428Z,1.60
2022-08-26T04:43:54.565Z,2.20
2022-08-26T04:46:26.053Z,1.63
2022-08-26T04:48:56.420Z,2.03
2022-08-26T04:51:28.867Z,2.42
2022-08-26T04:54:00.656Z,2.28
2022-08-26T04:56:35.085Z,3.00
2022-08-26T04:59:14.929Z,1.98
2022-08-26T05:01:53.479Z,1.92
2022-08-26T05:04:23.138Z,1.50
2022-08-26T05:06:57.840Z,2.10
2022-08-26T05:09:31.721Z,1.95
2022-08-26T05:12:01.055Z,1.63
2022-08-26T05:14:30.514Z,1.63
2022-08-26T05:16:59.887Z,1.55
2022-08-26T05:19:29.977Z,2.50
2022-08-26T05:21:59.217Z,1.98
2022-08-26T05:24:28.667Z,1.30
2022-08-26T05:26:58.445Z,1.58
2022-08-26T05:29:29.370Z,2.00
2022-08-26T05:31:58.663Z,1.17
2022-08-26T05:34:30.395Z,2.00
2022-08-26T05:37:00.683Z,2.28
2022-08-26T05:39:29.951Z,2.53
2022-08-26T05:42:01.169Z,2.10
2022-08-26T05:44:35.873Z,1.75
2022-08-26T05:47:21.135Z,2.30
2022-08-26T05:49:52.662Z,1.88
2022-08-26T05:52:25.897Z,2.25
2022-08-26T05:54:55.419Z,2.50
2022-08-26T05:57:24.725Z,2.05
2022-08-26T05:59:53.971Z,2.85
2022-08-26T06:02:23.327Z,2.22
2022-08-26T06:04:52.886Z,2.28
2022-08-26T06:07:41.870Z,2.50
2022-08-26T06:10:31.539Z,1.90
2022-08-26T06:13:11.600Z,2.17
2022-08-26T06:15:47.748Z,2.40
2022-08-26T06:18:25.489Z,2.10
2022-08-26T06:20:57.740Z,2.72
2022-08-26T06:23:43.054Z,2.90
2022-08-26T06:26:13.666Z,3.80
2022-08-26T06:28:45.456Z,5.20
2022-08-26T06:31:16.877Z,4.78
2022-08-26T06:33:47.304Z,4.10
2022-08-26T06:36:26.447Z,4.53
2022-08-26T06:39:00.863Z,4.15
2022-08-26T06:41:32.901Z,4.13
2022-08-26T06:44:04.007Z,3.28
2022-08-26T06:46:34.274Z,3.17
2022-08-26T06:49:03.935Z,3.55
2022-08-26T06:51:37.098Z,4.05
2022-08-26T06:54:09.638Z,3.53
2022-08-26T06:56:45.728Z,3.10
2022-08-26T06:59:17.314Z,3.80
2022-08-26T07:01:47.543Z,3.53
2022-08-26T07:04:21.789Z,3.30
2022-08-26T07:06:53.964Z,3.33
2022-08-26T07:09:28.754Z,3.20
2022-08-26T07:11:58.624Z,3.03
2022-08-26T07:14:28.664Z,3.33
2022-08-26T07:16:57.842Z,2.13
2022-08-26T07:19:29.982Z,2.20
2022-08-26T07:22:06.947Z,2.03
2022-08-26T07:24:44.268Z,1.50
2022-08-26T07:27:17.797Z,1.73
2022-08-26T07:29:47.561Z,2.55
2022-08-26T07:32:22.947Z,1.75
2022-08-26T07:34:52.902Z,2.17
2022-08-26T07:37:22.553Z,1.67
2022-08-26T07:39:52.578Z,2.10
2022-08-26T07:42:34.553Z,1.90
2022-08-26T07:45:04.403Z,2.42
2022-08-26T07:47:34.014Z,1.90
2022-08-26T07:50:03.598Z,3.00
2022-08-26T07:52:36.073Z,2.17
2022-08-26T07:55:08.475Z,2.60
2022-08-26T07:57:38.388Z,2.08
2022-08-26T08:00:16.961Z,1.95
2022-08-26T08:02:47.010Z,2.25
2022-08-26T08:05:19.494Z,2.55
2022-08-26T08:07:53.787Z,2.08
2022-08-26T08:10:43.198Z,2.22
2022-08-26T08:13:18.100Z,2.03
2022-08-26T08:15:48.102Z,2.85
2022-08-26T08:18:20.797Z,2.03
2022-08-26T08:20:54.556Z,2.05
2022-08-26T08:23:28.653Z,3.20
2022-08-26T08:26:13.210Z,1.88
2022-08-26T08:28:42.932Z,2.05
2022-08-26T08:31:55.816Z,2.90
2022-08-26T08:34:19.162Z,1.92
2022-08-26T08:36:53.398Z,3.00
2022-08-26T08:39:23.662Z,1.85
2022-08-26T08:42:33.604Z,3.10
2022-08-26T08:45:13.302Z,2.88
2022-08-26T08:47:56.166Z,1.50
2022-08-26T08:50:36.136Z,2.72
2022-08-26T08:53:38.536Z,2.47
2022-08-26T08:56:36.769Z,2.65
2022-08-26T08:59:23.302Z,2.72
2022-08-26T09:02:36.004Z,2.00
2022-08-26T09:05:36.323Z,2.10
2022-08-26T09:08:31.500Z,1.85
2022-08-26T09:11:05.878Z,1.98
2022-08-26T09:13:38.900Z,2.35
2022-08-26T09:16:49.138Z,1.50
2022-08-26T09:19:52.756Z,1.90
2022-08-26T09:22:38.544Z,2.50
2022-08-26T09:25:13.804Z,3.65
2022-08-26T09:27:51.115Z,3.83
2022-08-26T09:30:38.757Z,2.58
2022-08-26T09:33:12.042Z,3.53
2022-08-26T09:35:50.115Z,3.67
2022-08-26T09:38:35.591Z,2.65
2022-08-26T09:41:20.044Z,2.00
2022-08-26T09:44:19.035Z,2.40
2022-08-26T09:46:59.009Z,3.55
2022-08-26T09:49:39.332Z,3.25
2022-08-26T09:52:30.089Z,2.35
2022-08-26T09:55:14.916Z,4.10
2022-08-26T09:57:58.202Z,4.28
2022-08-26T10:00:55.752Z,4.10
2022-08-26T10:03:34.076Z,4.18
2022-08-26T10:09:01.944Z,3.72
2022-08-26T10:12:01.843Z,3.03
2022-08-26T10:14:56.717Z,3.70
2022-08-26T10:17:58.705Z,4.57
2022-08-26T10:20:43.818Z,4.68
2022-08-26T10:23:23.357Z,4.80
2022-08-26T10:26:23.058Z,5.47
2022-08-26T10:29:20.923Z,4.70
2022-08-26T10:32:27.930Z,4.63
2022-08-26T10:34:57.423Z,5.70
2022-08-26T10:37:41.126Z,5.85
2022-08-26T10:40:40.776Z,5.45
2022-08-26T10:43:32.054Z,5.40
2022-08-26T10:46:14.679Z,6.35
2022-08-26T10:49:06.519Z,6.47
2022-08-26T10:52:03.904Z,5.55
2022-08-26T10:55:23.779Z,6.05
2022-08-26T10:58:33.279Z,5.22
2022-08-26T11:01:44.073Z,5.55
2022-08-26T11:04:54.539Z,5.30
2022-08-26T11:07:45.366Z,4.93
2022-08-26T11:10:55.817Z,5.57
2022-08-26T11:14:01.927Z,4.65
2022-08-26T11:16:47.428Z,4.72
2022-08-26T11:20:02.126Z,4.35
2022-08-26T11:22:45.465Z,5.55
2022-08-26T11:25:27.758Z,5.50
2022-08-26T11:28:01.145Z,5.03
2022-08-26T11:30:43.793Z,4.57
2022-08-26T11:33:45.315Z,5.18
2022-08-26T11:36:56.690Z,5.38
2022-08-26T11:39:52.639Z,5.95
2022-08-26T11:42:59.669Z,5.43
2022-08-26T11:45:44.996Z,4.82
2022-08-26T11:48:37.712Z,4.97
2022-08-26T11:51:27.162Z,4.85
2022-08-26T11:54:13.705Z,5.43
2022-08-26T11:56:49.361Z,5.13
2022-08-26T12:02:05.807Z,5.85
2022-08-26T12:04:44.301Z,5.57
2022-08-26T12:07:13.986Z,4.93
2022-08-26T12:10:06.138Z,5.30
2022-08-26T12:12:41.198Z,4.43
2022-08-26T12:15:19.752Z,4.82
2022-08-26T12:17:54.395Z,5.03
2022-08-26T12:20:49.184Z,5.55
2022-08-26T12:23:47.621Z,3.90
2022-08-26T12:26:42.104Z,1.65
2022-08-26T12:29:32.117Z,2.65
2022-08-26T12:32:20.392Z,1.20
2022-08-26T12:37:19.908Z,1.63
2022-08-26T12:39:59.464Z,1.20
2022-08-26T12:42:47.880Z,2.00
2022-08-26T12:45:40.126Z,1.13
2022-08-26T12:48:30.979Z,1.00
2022-08-26T12:51:03.924Z,1.13
2022-08-26T12:53:47.810Z,1.38
2022-08-26T12:56:44.836Z,0.80
2022-08-26T12:59:30.826Z,1.00
2022-08-26T13:02:03.134Z,1.35
2022-08-26T13:04:47.255Z,0.90
2022-08-26T13:07:31.368Z,1.15
2022-08-26T13:10:02.170Z,1.05
2022-08-26T13:12:44.403Z,1.33
2022-08-26T13:15:16.153Z,1.27
2022-08-26T13:17:50.797Z,1.85
2022-08-26T13:20:20.134Z,2.92
2022-08-26T13:22:53.887Z,1.60
2022-08-26T13:25:33.075Z,1.20
2022-08-26T13:28:04.928Z,1.40
2022-08-26T13:33:24.242Z,3.33
2022-08-26T13:35:56.000Z,2.00
2022-08-26T13:38:33.823Z,1.48
2022-08-26T13:41:07.247Z,1.38
2022-08-26T13:43:36.676Z,1.45
2022-08-26T13:46:07.930Z,1.70
2022-08-26T13:48:44.801Z,1.80
2022-08-26T13:51:15.030Z,1.83
2022-08-26T13:53:46.945Z,2.05
2022-08-26T13:56:24.818Z,2.00
2022-08-26T13:58:59.802Z,1.80
2022-08-26T14:01:33.767Z,1.70
2022-08-26T14:04:08.881Z,2.13
2022-08-26T14:06:56.240Z,1.48
2022-08-26T14:09:25.799Z,2.30
2022-08-26T14:11:55.354Z,2.50
2022-08-26T14:14:24.937Z,1.58
2022-08-26T14:16:59.831Z,1.92
2022-08-26T14:19:31.500Z,2.20
2022-08-26T14:22:02.471Z,2.88
2022-08-26T14:24:37.016Z,3.17
2022-08-26T14:27:06.314Z,2.08
2022-08-26T14:29:35.582Z,1.73
2022-08-26T14:32:12.563Z,2.13
2022-08-26T14:34:43.591Z,1.80
2022-08-26T14:37:15.394Z,2.42
2022-08-26T14:39:45.472Z,1.65
2022-08-26T14:42:21.267Z,1.40
2022-08-26T14:44:57.507Z,2.40
2022-08-26T14:47:27.345Z,2.35
2022-08-26T14:49:56.644Z,1.70
2022-08-26T14:52:26.493Z,1.88
2022-08-26T14:54:55.895Z,2.30
2022-08-26T14:57:25.316Z,1.63
2022-08-26T14:59:54.764Z,1.50
2022-08-26T15:02:32.698Z,2.10
2022-08-26T15:05:05.433Z,1.98
2022-08-26T15:07:34.690Z,1.70
2022-08-26T15:10:04.445Z,1.63
2022-08-26T15:12:33.952Z,2.05
2022-08-26T15:15:03.576Z,1.73
2022-08-26T15:17:32.790Z,2.05
2022-08-26T15:20:02.516Z,1.23
2022-08-26T15:22:31.901Z,1.17
2022-08-26T15:25:01.278Z,1.50
2022-08-26T15:27:30.669Z,1.40
2022-08-26T15:30:00.091Z,1.00
2022-08-26T15:32:30.473Z,1.55
2022-08-26T15:34:59.805Z,2.00
2022-08-26T15:37:31.752Z,1.20
2022-08-26T15:40:05.130Z,1.45
2022-08-26T15:42:36.674Z,0.98
2022-08-26T15:45:06.314Z,1.92
2022-08-26T15:47:48.390Z,1.25
2022-08-26T15:50:26.567Z,0.90
2022-08-26T15:52:57.949Z,1.15
2022-08-26T15:55:28.887Z,1.35
2022-08-26T15:57:58.037Z,1.00
2022-08-26T16:00:28.171Z,0.80
2022-08-26T16:02:57.573Z,1.33
2022-08-26T16:05:26.906Z,0.93
2022-08-26T16:07:56.270Z,1.70
2022-08-26T16:10:28.703Z,1.33
2022-08-26T16:12:58.210Z,1.10
2022-08-26T16:15:27.561Z,1.02
2022-08-26T16:17:59.783Z,0.88
2022-08-26T16:20:30.676Z,0.93
2022-08-26T16:23:00.765Z,0.90
2022-08-26T16:25:32.372Z,0.90
2022-08-26T16:28:01.757Z,0.88
2022-08-26T16:30:35.418Z,0.70
2022-08-26T16:33:04.823Z,1.10
2022-08-26T16:35:34.219Z,1.02
2022-08-26T16:38:03.908Z,0.70
2022-08-26T16:40:33.446Z,0.80
2022-08-26T16:43:02.941Z,0.95
2022-08-26T16:45:32.251Z,0.82
2022-08-26T16:48:01.453Z,0.85
2022-08-26T16:50:31.207Z,1.27
2022-08-26T16:53:01.290Z,1.13
2022-08-26T16:55:30.758Z,1.50
2022-08-26T16:58:02.365Z,1.10
2022-08-26T17:00:35.611Z,2.33
2022-08-26T17:03:05.375Z,1.25
2022-08-26T17:05:34.665Z,1.23
2022-08-26T17:08:04.357Z,1.45
2022-08-26T17:10:37.586Z,1.35
2022-08-26T17:13:07.334Z,1.65
2022-08-26T17:15:39.647Z,1.80
2022-08-26T17:18:12.697Z,1.80
2022-08-26T17:20:41.848Z,2.10
2022-08-26T17:23:11.166Z,1.45
2022-08-26T17:25:40.540Z,1.40
2022-08-26T17:28:13.304Z,1.90
2022-08-26T17:30:45.450Z,1.45
2022-08-26T17:33:14.832Z,1.38
2022-08-26T17:35:49.401Z,1.75
2022-08-26T17:38:18.748Z,1.30
2022-08-26T17:40:48.245Z,1.60
2022-08-26T17:43:18.325Z,1.33
2022-08-26T17:45:51.742Z,1.88
2022-08-26T17:48:21.163Z,1.33
2022-08-26T17:50:50.410Z,1.92
2022-08-26T17:53:19.933Z,2.28
2022-08-26T17:55:50.570Z,2.00
2022-08-26T17:58:23.486Z,1.95
2022-08-26T18:00:55.714Z,1.90
2022-08-26T18:03:24.940Z,1.70
2022-08-26T18:05:54.609Z,2.10
2022-08-26T18:08:24.625Z,1.58
2022-08-26T18:10:54.281Z,1.88
2022-08-26T18:13:23.577Z,1.50
2022-08-26T18:15:52.974Z,1.92
2022-08-26T18:18:22.271Z,1.50
2022-08-26T18:20:54.133Z,1.88
2022-08-26T18:23:31.572Z,1.20
2022-08-26T18:26:00.975Z,1.88
2022-08-26T18:28:30.274Z,1.48
2022-08-26T18:31:01.739Z,1.60
2022-08-26T18:33:32.155Z,1.23
2022-08-26T18:36:02.749Z,2.38
2022-08-26T18:38:31.957Z,2.08
2022-08-26T18:41:05.394Z,1.95
2022-08-26T18:43:34.670Z,1.80
2022-08-26T18:46:09.420Z,1.45
2022-08-26T18:48:40.658Z,1.55
2022-08-26T18:51:16.579Z,1.70
2022-08-26T18:53:45.993Z,1.50
2022-08-26T18:56:18.149Z,2.03
2022-08-26T18:58:48.874Z,1.60
2022-08-26T19:01:21.600Z,1.80
2022-08-26T19:03:53.705Z,1.45
2022-08-26T19:06:25.732Z,1.90
2022-08-26T19:08:58.298Z,1.85
2022-08-26T19:11:31.753Z,1.70
2022-08-26T19:14:03.696Z,1.85
2022-08-26T19:16:33.337Z,1.60
2022-08-26T19:19:03.738Z,1.63
2022-08-26T19:21:36.365Z,1.55
2022-08-26T19:24:16.231Z,2.10
2022-08-26T19:26:57.440Z,2.50
2022-08-26T19:29:31.610Z,1.63
2022-08-26T19:32:01.846Z,2.15
2022-08-26T19:34:31.443Z,1.75
2022-08-26T19:37:01.057Z,1.63
2022-08-26T19:39:30.453Z,2.05
2022-08-26T19:42:01.390Z,2.28
2022-08-26T19:44:42.883Z,1.55
2022-08-26T19:47:14.410Z,1.73
2022-08-26T19:49:43.813Z,1.98
2022-08-26T19:52:13.679Z,2.10
2022-08-26T19:54:43.319Z,2.33
2022-08-26T19:57:13.050Z,2.08
2022-08-26T19:59:43.290Z,2.08
2022-08-26T20:02:13.820Z,2.30
2022-08-26T20:04:45.094Z,1.98
2022-08-26T20:07:18.083Z,1.75
2022-08-26T20:09:49.901Z,2.90
2022-08-26T20:12:19.926Z,2.97
2022-08-26T20:14:49.495Z,2.25
2022-08-26T20:17:18.828Z,1.42
2022-08-26T20:20:00.506Z,2.80
2022-08-26T20:22:29.942Z,2.05
2022-08-26T20:24:59.406Z,2.17
2022-08-26T20:27:34.343Z,2.25
2022-08-26T20:30:10.838Z,2.30
2022-08-26T20:32:42.696Z,1.90
2022-08-26T20:35:14.840Z,2.20
2022-08-26T20:37:44.628Z,1.50
2022-08-26T20:40:16.541Z,2.17
2022-08-26T20:42:45.901Z,1.75
2022-08-26T20:45:15.208Z,2.90
2022-08-26T20:47:44.767Z,2.13
2022-08-26T20:50:14.019Z,1.35
2022-08-26T20:52:43.282Z,1.83
2022-08-26T20:55:13.014Z,1.90
2022-08-26T20:57:44.205Z,1.63
2022-08-26T21:00:17.030Z,1.85
2022-08-26T21:02:49.388Z,1.83
2022-08-26T21:05:19.860Z,1.65
2022-08-26T21:07:50.461Z,1.77
2022-08-26T21:10:20.391Z,2.05
2022-08-26T21:12:49.597Z,1.60
2022-08-26T21:15:19.654Z,1.90
2022-08-26T21:17:48.904Z,1.80
2022-08-26T21:20:18.892Z,1.90
2022-08-26T21:22:48.333Z,1.88
2022-08-26T21:25:18.419Z,1.92
2022-08-26T21:27:47.925Z,1.67
2022-08-26T21:30:18.375Z,1.90
2022-08-26T21:32:47.685Z,1.88
2022-08-26T21:35:17.008Z,1.85
2022-08-26T21:37:46.251Z,1.63
2022-08-26T21:40:15.662Z,1.98
2022-08-26T21:42:44.976Z,1.13
2022-08-26T21:45:14.951Z,1.73
2022-08-26T21:47:44.412Z,2.38
2022-08-26T21:50:14.666Z,1.95
2022-08-26T21:52:43.963Z,1.63
2022-08-26T21:55:13.444Z,1.70
2022-08-26T21:57:42.663Z,2.22
2022-08-26T22:00:15.822Z,1.88
2022-08-26T22:02:45.200Z,1.80
2022-08-26T22:05:14.709Z,1.73
2022-08-26T22:07:44.089Z,1.83
2022-08-26T22:10:13.739Z,1.88
2022-08-26T22:12:43.096Z,1.63
2022-08-26T22:15:13.147Z,2.10
2022-08-26T22:17:42.448Z,1.75
2022-08-26T22:20:16.533Z,1.85
2022-08-26T22:22:46.693Z,2.30
2022-08-26T22:25:16.035Z,1.58
2022-08-26T22:27:45.393Z,1.88
2022-08-26T22:30:15.307Z,1.67
2022-08-26T22:32:46.710Z,1.92
2022-08-26T22:35:28.694Z,1.98
2022-08-26T22:38:00.445Z,1.98
2022-08-26T22:40:29.811Z,1.75
2022-08-26T22:43:00.037Z,2.05
2022-08-26T22:45:32.369Z,2.70
2022-08-26T22:48:06.727Z,1.83
2022-08-26T22:50:47.102Z,1.98
2022-08-26T22:53:23.068Z,1.95
2022-08-26T22:55:52.337Z,2.35
2022-08-26T22:58:28.016Z,2.58
2022-08-26T23:01:01.264Z,2.25
2022-08-26T23:03:30.682Z,2.75
2022-08-26T23:06:00.225Z,2.00
2022-08-26T23:08:29.666Z,2.70
2022-08-26T23:10:58.934Z,2.15
2022-08-26T23:13:28.780Z,2.05
2022-08-26T23:16:12.059Z,2.78
2022-08-26T23:18:43.047Z,2.03
2022-08-26T23:21:12.321Z,7.97
2022-08-26T23:23:41.652Z,23.98
2022-08-26T23:26:13.461Z,37.03
2022-08-26T23:28:44.848Z,17.17
2022-08-26T23:31:15.372Z,3.03
2022-08-26T23:33:56.954Z,3.20
2022-08-26T23:36:27.673Z,2.63
2022-08-26T23:39:00.101Z,2.20
2022-08-26T23:41:29.425Z,2.10
2022-08-26T23:44:03.252Z,2.92
2022-08-26T23:46:35.569Z,2.97
2022-08-26T23:49:07.688Z,4.35
2022-08-26T23:51:49.295Z,3.47
2022-08-26T23:54:18.901Z,3.28
2022-08-26T23:56:48.228Z,4.95
2022-08-26T23:59:17.463Z,3.63
